Main page
METAR-TAF:

METAR-TAF

Airports :

Cam Ranh International Airport

Cam Ranh, Vietnam

latitude: 11-59-53N, longitude: 109-13-10E, elevation: 12 m

Current weather observation

The report was made 37 minutes ago, at 02:30 UTC
Wind 5 kt from the East/Northeast
Temperature 34°C
Humidity 56%
Pressure 1011 hPa
Visibility 10 km or more
Few clouds at a height of 1700 ft

METAR: VVCR 230230Z 06005KT 9999 FEW017 34/24 Q1011 NOSIG

Time: 10:07 (03:07 UTC)

Forecast

The report was made 4 hours and 7 minutes ago, at 23:00 UTC
Forecast valid from 23 at 00 UTC to 23 at 24 UTC
Wind 3 kt from variable directions
Visibility 10 km or more
Scattered clouds at a height of 1700 ft
Scattered clouds at a height of 4000 ft
Becoming
from 23 at 04 UTC to 23 at 05 UTC
Wind 10 kt from the East/Southeast

TAF: VVCR 222300Z 2300/2324 VRB03KT 9999 SCT017 SCT040 BECMG 2304/2305 12010KT

Weather observations and forecasts of more than 4000 airports (METAR and TAF reports).

The available stations are represented by yellow and red dots on the map.

Hover mouse over dot to see the name of the station.

Then click to see weather observations and forecasts.

To change the map : click on the green buttons with a black cross to zoom in, on the green button with a dash to zoom out, or on the green arrows for adjacent maps.


METAR-TAF: